createdAt,value
2023-03-20T00:02:54.127Z,11.20
2023-03-20T00:05:23.506Z,11.20
2023-03-20T00:07:51.275Z,11.20
2023-03-20T00:10:22.554Z,11.20
2023-03-20T00:12:52.156Z,11.10
2023-03-20T00:15:38.375Z,11.10
2023-03-20T00:18:18.719Z,11.10
2023-03-20T00:20:51.019Z,11.00
2023-03-20T00:23:18.629Z,11.00
2023-03-20T00:25:47.230Z,11.00
2023-03-20T00:28:37.678Z,11.00
2023-03-20T00:31:07.034Z,10.90
2023-03-20T00:33:34.306Z,10.90
2023-03-20T00:39:26.369Z,10.80
2023-03-20T00:41:56.297Z,10.80
2023-03-20T00:44:47.850Z,10.80
2023-03-20T00:47:20.822Z,10.80
2023-03-20T00:50:20.885Z,10.80
2023-03-20T00:52:48.546Z,10.90
2023-03-20T00:55:16.021Z,11.00
2023-03-20T00:58:04.225Z,11.00
2023-03-20T01:00:31.454Z,11.10
2023-03-20T01:02:59.096Z,11.20
2023-03-20T01:05:29.156Z,11.20
2023-03-20T01:07:56.611Z,11.20
2023-03-20T01:10:28.306Z,11.20
2023-03-20T01:13:02.914Z,11.10
2023-03-20T01:15:34.948Z,11.10
2023-03-20T01:18:02.282Z,11.10
2023-03-20T01:20:31.027Z,11.10
2023-03-20T01:22:58.302Z,11.20
2023-03-20T01:25:26.176Z,11.20
2023-03-20T01:27:55.235Z,11.20
2023-03-20T01:30:26.436Z,11.20
2023-03-20T01:32:54.073Z,11.20
2023-03-20T01:35:27.493Z,11.10
2023-03-20T01:37:56.626Z,11.10
2023-03-20T01:40:45.579Z,11.20
2023-03-20T01:43:17.314Z,11.20
2023-03-20T01:46:26.104Z,11.20
2023-03-20T01:49:08.662Z,11.20
2023-03-20T01:51:37.847Z,11.20
2023-03-20T01:54:19.172Z,11.10
2023-03-20T01:57:16.861Z,11.10
2023-03-20T01:59:50.804Z,11.00
2023-03-20T02:02:25.888Z,11.00
2023-03-20T02:04:58.570Z,11.00
2023-03-20T02:07:26.259Z,11.00
2023-03-20T02:10:19.839Z,11.00
2023-03-20T02:12:54.120Z,10.90
2023-03-20T02:15:37.516Z,10.80
2023-03-20T02:18:12.755Z,10.70
2023-03-20T02:21:04.306Z,10.70
2023-03-20T02:24:09.927Z,10.80
2023-03-20T02:26:56.608Z,10.80
2023-03-20T02:29:58.274Z,10.80
2023-03-20T02:33:10.348Z,10.70
2023-03-20T02:35:47.514Z,10.80
2023-03-20T02:38:41.049Z,10.80
2023-03-20T02:41:20.441Z,10.80
2023-03-20T02:44:14.174Z,10.80
2023-03-20T02:46:57.661Z,10.80
2023-03-20T02:49:45.538Z,10.90
2023-03-20T02:52:43.930Z,10.90
2023-03-20T02:55:23.986Z,10.80
2023-03-20T02:58:28.797Z,10.80
2023-03-20T03:01:06.294Z,10.80
2023-03-20T03:03:52.196Z,10.90
2023-03-20T03:06:32.847Z,10.90
2023-03-20T03:09:07.738Z,11.00
2023-03-20T03:11:38.524Z,11.00
2023-03-20T03:14:07.317Z,10.90
2023-03-20T03:16:38.056Z,10.90
2023-03-20T03:19:19.623Z,11.00
2023-03-20T03:21:47.985Z,11.00
2023-03-20T03:24:41.842Z,11.00
2023-03-20T03:27:41.534Z,11.00
2023-03-20T03:30:16.874Z,11.00
2023-03-20T03:32:51.281Z,11.00
2023-03-20T03:35:21.342Z,11.00
2023-03-20T03:38:02.736Z,10.90
2023-03-20T03:41:22.628Z,11.00
2023-03-20T03:44:27.210Z,11.00
2023-03-20T03:47:25.591Z,10.90
2023-03-20T03:50:00.992Z,10.90
2023-03-20T03:52:31.693Z,10.90
2023-03-20T03:55:08.667Z,10.90
2023-03-20T03:57:46.195Z,10.90
2023-03-20T04:00:20.772Z,10.80
2023-03-20T04:02:52.560Z,10.90
2023-03-20T04:05:21.461Z,10.90
2023-03-20T04:07:53.356Z,10.80
2023-03-20T04:10:20.271Z,10.80
2023-03-20T04:12:47.781Z,10.90
2023-03-20T04:15:16.762Z,10.90
2023-03-20T04:17:45.097Z,10.90
2023-03-20T04:20:16.264Z,10.90
2023-03-20T04:22:43.578Z,10.90
2023-03-20T04:25:19.670Z,10.90
2023-03-20T04:27:47.028Z,10.80
2023-03-20T04:30:24.897Z,10.90
2023-03-20T04:33:10.916Z,10.90
2023-03-20T04:36:00.954Z,10.90
2023-03-20T04:38:28.116Z,11.00
2023-03-20T04:40:55.981Z,10.90
2023-03-20T04:43:23.863Z,11.00
2023-03-20T04:45:51.649Z,11.00
2023-03-20T04:48:28.216Z,11.00
2023-03-20T04:50:55.444Z,10.90
2023-03-20T04:53:29.143Z,10.90
2023-03-20T04:55:56.220Z,10.90
2023-03-20T04:58:23.742Z,10.90
2023-03-20T05:00:51.193Z,10.90
2023-03-20T05:03:18.205Z,10.80
2023-03-20T05:05:45.483Z,10.80
2023-03-20T05:08:12.964Z,10.80
2023-03-20T05:10:40.885Z,10.70
2023-03-20T05:13:47.745Z,10.70
2023-03-20T05:16:26.803Z,10.60
2023-03-20T05:19:19.017Z,10.60
2023-03-20T05:21:51.680Z,10.60
2023-03-20T05:24:18.770Z,10.50
2023-03-20T05:27:08.705Z,10.50
2023-03-20T05:30:09.761Z,10.40
2023-03-20T05:33:03.066Z,10.40
2023-03-20T05:35:48.409Z,10.50
2023-03-20T05:38:27.311Z,10.50
2023-03-20T05:41:20.466Z,10.40
2023-03-20T05:44:07.771Z,10.30
2023-03-20T05:46:55.348Z,10.30
2023-03-20T05:49:50.680Z,10.30
2023-03-20T05:52:37.987Z,10.20
2023-03-20T05:55:34.434Z,10.10
2023-03-20T05:58:13.048Z,10.00
2023-03-20T06:00:46.346Z,10.00
2023-03-20T06:03:33.653Z,10.00
2023-03-20T06:06:09.897Z,10.00
2023-03-20T06:08:37.528Z,10.00
2023-03-20T06:11:06.758Z,10.00
2023-03-20T06:13:37.802Z,10.00
2023-03-20T06:16:05.902Z,10.00
2023-03-20T06:18:34.043Z,10.00
2023-03-20T06:21:02.799Z,9.90
2023-03-20T06:23:30.605Z,9.90
2023-03-20T06:26:05.019Z,9.90
2023-03-20T06:28:43.831Z,9.90
2023-03-20T06:31:11.309Z,9.90
2023-03-20T06:33:38.758Z,10.00
2023-03-20T06:36:06.132Z,10.10
2023-03-20T06:38:34.112Z,10.10
2023-03-20T06:41:07.176Z,10.20
2023-03-20T06:43:35.241Z,10.30
2023-03-20T06:46:03.784Z,10.40
2023-03-20T06:48:32.551Z,10.50
2023-03-20T06:51:04.067Z,10.60
2023-03-20T06:53:36.992Z,10.60
2023-03-20T06:56:06.901Z,10.70
2023-03-20T06:58:34.066Z,10.80
2023-03-20T07:01:01.358Z,10.80
2023-03-20T07:03:30.469Z,10.90
2023-03-20T07:06:01.499Z,11.00
2023-03-20T07:08:29.465Z,11.20
2023-03-20T07:10:56.542Z,11.50
2023-03-20T07:13:23.996Z,11.60
2023-03-20T07:16:03.682Z,11.70
2023-03-20T07:18:35.548Z,11.80
2023-03-20T07:21:05.264Z,11.90
2023-03-20T07:23:34.648Z,12.10
2023-03-20T07:26:06.345Z,12.30
2023-03-20T07:28:34.500Z,12.40
2023-03-20T07:32:26.351Z,12.50
2023-03-20T07:34:55.052Z,12.50
2023-03-20T07:37:22.221Z,12.70
2023-03-20T07:40:25.473Z,12.80
2023-03-20T07:47:05.468Z,13.00
2023-03-20T07:49:32.995Z,13.10
2023-03-20T07:52:00.700Z,13.20
2023-03-20T07:54:27.906Z,13.30
2023-03-20T07:56:57.945Z,13.40
2023-03-20T07:59:25.461Z,13.50
2023-03-20T08:01:52.523Z,13.50
2023-03-20T08:04:22.729Z,13.60
2023-03-20T08:06:52.202Z,13.60
2023-03-20T08:09:19.549Z,13.70
2023-03-20T08:11:47.356Z,13.80
2023-03-20T08:14:33.435Z,13.90
2023-03-20T08:17:13.616Z,14.00
2023-03-20T08:19:54.583Z,14.10
2023-03-20T08:22:21.868Z,14.10
2023-03-20T08:27:39.255Z,14.20
2023-03-20T08:30:09.034Z,14.20
2023-03-20T08:32:41.376Z,14.20
2023-03-20T08:35:25.754Z,14.20
2023-03-20T08:37:58.107Z,14.20
2023-03-20T08:40:29.583Z,14.30
2023-03-20T08:43:07.476Z,14.40
2023-03-20T08:45:43.948Z,14.50
2023-03-20T08:48:25.010Z,14.60
2023-03-20T08:50:52.378Z,14.70
2023-03-20T08:53:49.750Z,14.80
2023-03-20T08:56:17.598Z,14.80
2023-03-20T08:58:44.876Z,14.80
2023-03-20T09:01:14.224Z,14.70
2023-03-20T09:03:43.244Z,14.60
2023-03-20T09:06:11.336Z,14.70
2023-03-20T09:08:38.839Z,14.80
2023-03-20T09:14:06.379Z,15.10
2023-03-20T09:16:33.947Z,15.30
2023-03-20T09:19:02.182Z,15.30
2023-03-20T09:21:29.183Z,15.20
2023-03-20T09:23:56.265Z,15.40
2023-03-20T09:27:13.942Z,15.40
2023-03-20T09:30:07.336Z,15.50
2023-03-20T09:32:35.518Z,15.40
2023-03-20T09:35:03.589Z,15.60
2023-03-20T09:37:30.751Z,15.50
2023-03-20T09:40:29.133Z,15.30
2023-03-20T09:43:03.260Z,15.50
2023-03-20T09:45:47.929Z,15.80
2023-03-20T09:48:25.556Z,15.70
2023-03-20T09:51:06.091Z,15.80
2023-03-20T09:54:24.398Z,15.90
2023-03-20T09:57:20.420Z,15.90
2023-03-20T09:59:48.665Z,16.00
2023-03-20T10:02:24.583Z,16.10
2023-03-20T10:04:56.067Z,16.20
2023-03-20T10:07:23.517Z,16.40
2023-03-20T10:09:52.520Z,16.50
2023-03-20T10:12:51.672Z,16.50
2023-03-20T10:15:28.180Z,16.70
2023-03-20T10:18:07.575Z,16.70
2023-03-20T10:20:51.478Z,16.90
2023-03-20T10:23:41.450Z,16.80
2023-03-20T10:26:20.959Z,16.80
2023-03-20T10:28:53.768Z,16.90
2023-03-20T10:31:44.492Z,16.90
2023-03-20T10:34:32.523Z,16.90
2023-03-20T10:37:36.014Z,17.00
2023-03-20T10:40:27.267Z,17.30
2023-03-20T10:42:59.198Z,17.70
2023-03-20T10:45:43.312Z,17.60
2023-03-20T10:48:17.406Z,17.80
2023-03-20T10:51:04.022Z,18.00
2023-03-20T10:53:37.829Z,17.90
2023-03-20T10:56:17.194Z,18.10
2023-03-20T10:58:49.301Z,18.20
2023-03-20T11:01:16.541Z,18.20
2023-03-20T11:03:46.701Z,17.90
2023-03-20T11:06:31.887Z,17.90
2023-03-20T11:09:18.773Z,17.90
2023-03-20T11:11:51.943Z,18.00
2023-03-20T11:14:27.135Z,18.10
2023-03-20T11:16:56.152Z,18.40
2023-03-20T11:19:24.815Z,18.10
2023-03-20T11:21:56.175Z,18.30
2023-03-20T11:24:35.105Z,18.20
2023-03-20T11:27:17.090Z,18.30
2023-03-20T11:29:49.178Z,18.40
2023-03-20T11:32:22.380Z,18.50
2023-03-20T11:34:49.767Z,18.40
2023-03-20T11:37:27.125Z,18.00
2023-03-20T11:39:59.213Z,18.00
2023-03-20T11:42:30.550Z,18.10
2023-03-20T11:45:06.310Z,18.20
2023-03-20T11:47:36.134Z,18.40
2023-03-20T11:50:27.641Z,18.60
2023-03-20T11:52:54.907Z,18.70
2023-03-20T11:55:35.998Z,18.90
2023-03-20T11:58:05.937Z,19.30
2023-03-20T12:00:42.438Z,19.70
2023-03-20T12:03:37.338Z,19.80
2023-03-20T12:06:07.209Z,20.00
2023-03-20T12:08:37.243Z,19.90
2023-03-20T12:11:22.061Z,20.20
2023-03-20T12:13:52.055Z,19.90
2023-03-20T12:16:25.317Z,19.50
2023-03-20T12:19:06.593Z,19.40
2023-03-20T12:21:43.392Z,19.40
2023-03-20T12:24:36.722Z,19.60
2023-03-20T12:27:35.702Z,19.20
2023-03-20T12:30:33.271Z,19.60
2023-03-20T12:33:06.919Z,19.60
2023-03-20T12:35:44.783Z,19.80
2023-03-20T12:38:24.824Z,19.80
2023-03-20T12:41:26.488Z,19.30
2023-03-20T12:44:08.656Z,19.10
2023-03-20T12:46:43.851Z,19.10
2023-03-20T12:49:22.076Z,19.10
2023-03-20T12:52:20.453Z,19.00
2023-03-20T12:55:19.351Z,19.20
2023-03-20T12:58:09.328Z,19.50
2023-03-20T13:00:55.263Z,19.70
2023-03-20T13:04:06.297Z,19.70
2023-03-20T13:06:53.551Z,20.10
2023-03-20T13:09:58.472Z,20.30
2023-03-20T13:12:49.405Z,20.40
2023-03-20T13:15:34.662Z,20.60
2023-03-20T13:18:07.318Z,20.50
2023-03-20T13:20:41.406Z,20.60
2023-03-20T13:23:23.135Z,20.30
2023-03-20T13:26:00.812Z,20.10
2023-03-20T13:28:53.590Z,19.90
2023-03-20T13:31:42.992Z,20.10
2023-03-20T13:34:31.857Z,20.40
2023-03-20T13:37:23.856Z,20.60
2023-03-20T13:40:01.226Z,20.50
2023-03-20T13:42:51.981Z,20.30
2023-03-20T13:45:41.835Z,20.60
2023-03-20T13:48:30.024Z,20.80
2023-03-20T13:51:10.512Z,20.70
2023-03-20T13:54:37.112Z,20.80
2023-03-20T13:57:16.907Z,20.80
2023-03-20T14:00:01.321Z,20.80
2023-03-20T14:02:53.337Z,20.90
2023-03-20T14:05:25.962Z,21.00
2023-03-20T14:07:58.070Z,20.60
2023-03-20T14:10:25.060Z,20.40
2023-03-20T14:12:59.969Z,20.10
2023-03-20T14:15:38.633Z,19.80
2023-03-20T14:18:16.542Z,19.30
2023-03-20T14:20:52.935Z,19.30
2023-03-20T14:23:37.421Z,19.40
2023-03-20T14:26:26.162Z,19.30
2023-03-20T14:29:00.136Z,19.50
2023-03-20T14:31:50.791Z,19.80
2023-03-20T14:34:28.048Z,20.10
2023-03-20T14:41:25.522Z,20.00
2023-03-20T14:44:55.314Z,19.90
2023-03-20T14:47:52.728Z,19.90
2023-03-20T14:50:26.242Z,20.30
2023-03-20T14:53:07.987Z,20.40
2023-03-20T14:55:51.890Z,20.50
2023-03-20T14:58:51.889Z,20.30
2023-03-20T15:01:21.885Z,20.40
2023-03-20T15:03:57.645Z,20.70
2023-03-20T15:06:29.686Z,21.00
2023-03-20T15:09:07.106Z,21.00
2023-03-20T15:11:35.224Z,21.30
2023-03-20T15:14:07.333Z,21.70
2023-03-20T15:16:36.669Z,21.70
2023-03-20T15:19:15.599Z,21.60
2023-03-20T15:21:45.398Z,21.60
2023-03-20T15:24:21.614Z,21.60
2023-03-20T15:26:53.023Z,21.50
2023-03-20T15:29:20.767Z,21.00
2023-03-20T15:32:12.429Z,21.00
2023-03-20T15:34:42.610Z,21.00
2023-03-20T15:37:17.830Z,21.10
2023-03-20T15:40:00.687Z,21.20
2023-03-20T15:42:32.075Z,21.10
2023-03-20T15:45:08.202Z,21.00
2023-03-20T15:48:07.088Z,20.60
2023-03-20T15:50:37.562Z,20.80
2023-03-20T15:53:08.247Z,20.60
2023-03-20T15:55:36.838Z,20.60
2023-03-20T15:58:05.346Z,20.20
2023-03-20T16:00:39.987Z,19.70
2023-03-20T16:03:19.318Z,19.40
2023-03-20T16:05:50.075Z,18.70
2023-03-20T16:12:02.203Z,18.00
2023-03-20T16:14:34.922Z,17.90
2023-03-20T16:17:04.120Z,17.90
2023-03-20T16:19:31.584Z,17.90
2023-03-20T16:22:13.451Z,17.80
2023-03-20T16:24:40.920Z,17.70
2023-03-20T16:31:36.536Z,17.40
2023-03-20T16:34:09.653Z,17.30
2023-03-20T16:36:38.525Z,17.30
2023-03-20T16:39:21.709Z,17.30
2023-03-20T16:42:01.269Z,17.20
2023-03-20T16:44:33.668Z,17.20
2023-03-20T16:47:16.837Z,17.00
2023-03-20T16:49:53.778Z,17.00
2023-03-20T16:52:29.668Z,16.90
2023-03-20T16:54:58.782Z,16.90
2023-03-20T16:57:27.385Z,16.90
2023-03-20T17:00:12.740Z,16.80
2023-03-20T17:03:57.237Z,16.70
2023-03-20T17:06:36.079Z,16.60
2023-03-20T17:09:24.310Z,16.60
2023-03-20T17:12:01.437Z,16.50
2023-03-20T17:14:31.933Z,16.40
2023-03-20T17:17:00.470Z,16.40
2023-03-20T17:19:43.148Z,16.30
2023-03-20T17:22:19.181Z,16.30
2023-03-20T17:24:46.805Z,16.20
2023-03-20T17:27:23.280Z,16.10
2023-03-20T17:29:56.744Z,16.10
2023-03-20T17:32:27.238Z,15.90
2023-03-20T17:35:00.262Z,15.80
2023-03-20T17:37:50.298Z,15.80
2023-03-20T17:40:30.395Z,15.70
2023-03-20T17:43:00.996Z,15.70
2023-03-20T17:45:28.426Z,15.60
2023-03-20T17:47:55.760Z,15.50
2023-03-20T17:50:34.246Z,15.40
2023-03-20T17:53:02.496Z,15.30
2023-03-20T17:55:37.160Z,15.30
2023-03-20T17:58:13.969Z,15.20
2023-03-20T18:00:45.248Z,15.20
2023-03-20T18:03:18.219Z,15.10
2023-03-20T18:05:57.462Z,15.10
2023-03-20T18:08:27.980Z,15.00
2023-03-20T18:11:08.982Z,15.00
2023-03-20T18:13:40.611Z,15.00
2023-03-20T18:16:42.112Z,14.90
2023-03-20T18:19:26.932Z,14.90
2023-03-20T18:21:54.195Z,14.80
2023-03-20T18:24:22.696Z,14.80
2023-03-20T18:27:01.703Z,14.80
2023-03-20T18:29:29.015Z,14.70
2023-03-20T18:31:56.148Z,14.60
2023-03-20T18:34:27.734Z,14.60
2023-03-20T18:36:54.972Z,14.60
2023-03-20T18:39:24.914Z,14.60
2023-03-20T18:41:52.517Z,14.50
2023-03-20T18:44:19.946Z,14.50
2023-03-20T18:46:57.133Z,14.50
2023-03-20T18:49:24.482Z,14.40
2023-03-20T18:51:53.321Z,14.40
2023-03-20T18:54:20.341Z,14.30
2023-03-20T18:56:50.136Z,14.30
2023-03-20T18:59:17.718Z,14.30
2023-03-20T19:01:46.390Z,14.30
2023-03-20T19:04:13.775Z,14.30
2023-03-20T19:06:51.326Z,14.20
2023-03-20T19:12:17.347Z,14.10
2023-03-20T19:14:46.699Z,14.10
2023-03-20T19:17:19.933Z,14.10
2023-03-20T19:20:14.752Z,14.00
2023-03-20T19:22:47.585Z,14.00
2023-03-20T19:25:23.396Z,14.00
2023-03-20T19:31:32.184Z,13.80
2023-03-20T19:34:01.644Z,13.90
2023-03-20T19:36:39.769Z,13.90
2023-03-20T19:39:10.975Z,13.70
2023-03-20T19:41:55.060Z,13.70
2023-03-20T19:44:27.329Z,13.70
2023-03-20T19:51:00.041Z,13.70
2023-03-20T19:57:38.567Z,13.60
2023-03-20T20:00:55.684Z,13.50
2023-03-20T20:03:40.474Z,13.50
2023-03-20T20:06:09.888Z,13.40
2023-03-20T21:16:15.614Z,12.60
2023-03-20T21:18:43.483Z,12.70
2023-03-20T21:21:19.486Z,12.50
2023-03-20T21:34:31.699Z,12.40
2023-03-20T21:38:22.924Z,12.40
2023-03-20T21:56:41.896Z,12.40
2023-03-20T22:02:05.859Z,12.20
2023-03-20T22:09:04.707Z,12.10
2023-03-20T22:11:52.275Z,12.20
2023-03-20T22:18:19.196Z,12.20
2023-03-20T22:30:31.337Z,12.10
2023-03-20T22:33:44.642Z,12.10
2023-03-20T22:47:49.942Z,12.30
2023-03-20T22:58:59.069Z,12.20
2023-03-20T23:01:26.999Z,12.20
2023-03-20T23:03:57.830Z,12.10
2023-03-20T23:06:27.407Z,12.10
2023-03-20T23:08:58.376Z,12.10
2023-03-20T23:11:28.616Z,12.10
2023-03-20T23:13:56.549Z,12.20
2023-03-20T23:16:24.331Z,12.10
2023-03-20T23:18:51.717Z,12.10
2023-03-20T23:21:19.312Z,12.00
2023-03-20T23:23:46.445Z,11.90
2023-03-20T23:26:23.300Z,11.80
2023-03-20T23:28:53.659Z,11.80
2023-03-20T23:31:26.154Z,11.80
2023-03-20T23:33:58.351Z,11.80
2023-03-20T23:36:37.322Z,11.70
2023-03-20T23:42:29.196Z,11.60
2023-03-20T23:45:02.146Z,11.40
2023-03-20T23:47:44.493Z,11.40
2023-03-20T23:50:20.545Z,11.40
2023-03-20T23:52:57.151Z,11.30
2023-03-20T23:55:32.644Z,11.10
2023-03-20T23:58:01.300Z,11.00
